createdAt,value
2023-02-14T00:01:25.405Z,31.83
2023-02-14T00:03:53.416Z,37.57
2023-02-14T00:06:21.840Z,37.90
2023-02-14T00:08:52.415Z,28.53
2023-02-14T00:11:21.029Z,33.93
2023-02-14T00:14:07.638Z,36.90
2023-02-14T00:16:36.339Z,31.97
2023-02-14T00:19:04.119Z,31.37
2023-02-14T00:21:36.221Z,28.33
2023-02-14T00:24:08.271Z,26.50
2023-02-14T00:26:38.922Z,35.27
2023-02-14T00:29:09.132Z,29.33
2023-02-14T00:31:37.710Z,30.43
2023-02-14T00:34:06.272Z,31.83
2023-02-14T00:36:34.644Z,33.80
2023-02-14T00:39:06.284Z,25.10
2023-02-14T00:41:34.702Z,29.13
2023-02-14T00:44:02.796Z,22.30
2023-02-14T00:46:31.227Z,23.03
2023-02-14T00:48:59.211Z,26.60
2023-02-14T00:51:27.767Z,24.37
2023-02-14T00:53:55.603Z,25.20
2023-02-14T00:56:23.764Z,28.20
2023-02-14T00:58:51.628Z,26.03
2023-02-14T01:01:20.080Z,25.17
2023-02-14T01:03:48.232Z,24.03
2023-02-14T01:06:16.669Z,27.90
2023-02-14T01:08:44.428Z,24.43
2023-02-14T01:11:14.082Z,26.10
2023-02-14T01:13:42.250Z,23.57
2023-02-14T01:16:13.399Z,35.97
2023-02-14T01:18:42.046Z,30.37
2023-02-14T01:21:21.318Z,26.20
2023-02-14T01:23:51.918Z,24.60
2023-02-14T01:26:21.159Z,26.60
2023-02-14T01:28:49.143Z,30.93
2023-02-14T01:31:19.191Z,28.70
2023-02-14T01:33:48.459Z,23.97
2023-02-14T01:36:18.404Z,29.30
2023-02-14T01:38:46.468Z,26.57
2023-02-14T01:41:15.255Z,31.17
2023-02-14T01:44:09.065Z,24.17
2023-02-14T01:46:38.718Z,27.47
2023-02-14T01:49:10.311Z,36.87
2023-02-14T01:51:40.915Z,25.20
2023-02-14T01:54:09.565Z,31.97
2023-02-14T01:56:44.314Z,31.23
2023-02-14T01:59:15.223Z,29.77
2023-02-14T02:01:45.165Z,32.53
2023-02-14T02:04:22.320Z,32.20
2023-02-14T02:06:56.191Z,31.63
2023-02-14T02:09:39.621Z,26.10
2023-02-14T02:12:07.810Z,26.07
2023-02-14T02:14:37.731Z,28.20
2023-02-14T02:17:30.047Z,32.47
2023-02-14T02:20:00.630Z,33.03
2023-02-14T02:23:06.250Z,34.00
2023-02-14T02:25:49.257Z,31.77
2023-02-14T02:28:17.406Z,35.80
2023-02-14T02:30:54.483Z,30.03
2023-02-14T02:33:36.064Z,32.87
2023-02-14T02:36:03.895Z,38.40
2023-02-14T02:38:40.171Z,27.10
2023-02-14T02:41:07.986Z,34.87
2023-02-14T02:44:03.739Z,40.87
2023-02-14T02:46:50.241Z,37.47
2023-02-14T02:49:41.173Z,26.33
2023-02-14T02:52:51.405Z,27.53
2023-02-14T02:56:02.636Z,24.80
2023-02-14T02:58:48.456Z,30.37
2023-02-14T03:01:22.046Z,32.37
2023-02-14T03:04:14.359Z,33.17
2023-02-14T03:06:42.357Z,47.13
2023-02-14T03:09:33.571Z,40.97
2023-02-14T03:12:35.319Z,36.17
2023-02-14T03:15:03.410Z,38.10
2023-02-14T03:17:43.289Z,30.80
2023-02-14T03:20:14.264Z,45.03
2023-02-14T03:23:04.382Z,31.53
2023-02-14T03:25:48.220Z,27.87
2023-02-14T03:28:41.870Z,41.73
2023-02-14T03:31:15.819Z,45.10
2023-02-14T03:34:04.244Z,29.47
2023-02-14T03:36:42.123Z,46.60
2023-02-14T03:39:20.326Z,33.60
2023-02-14T03:41:54.054Z,27.43
2023-02-14T03:44:26.182Z,28.70
2023-02-14T03:46:58.691Z,28.33
2023-02-14T03:49:32.326Z,28.07
2023-02-14T03:52:02.376Z,36.93
2023-02-14T03:54:33.380Z,27.20
2023-02-14T03:57:24.597Z,24.50
2023-02-14T03:59:53.057Z,31.67
2023-02-14T04:02:35.430Z,32.07
2023-02-14T04:05:09.706Z,31.17
2023-02-14T04:07:46.430Z,39.33
2023-02-14T04:10:15.225Z,38.87
2023-02-14T04:12:43.498Z,46.10
2023-02-14T04:15:11.777Z,43.93
2023-02-14T04:17:58.680Z,56.03
2023-02-14T04:20:27.976Z,64.97
2023-02-14T04:22:56.260Z,57.40
2023-02-14T04:25:24.612Z,63.47
2023-02-14T04:27:52.377Z,51.93
2023-02-14T04:30:21.865Z,50.57
2023-02-14T04:32:50.105Z,48.57
2023-02-14T04:35:18.469Z,50.27
2023-02-14T04:37:46.334Z,115.93
2023-02-14T04:40:17.440Z,71.93
2023-02-14T04:42:46.552Z,77.90
2023-02-14T04:45:14.919Z,49.17
2023-02-14T04:47:42.680Z,43.80
2023-02-14T04:50:10.896Z,50.47
2023-02-14T04:52:38.687Z,73.80
2023-02-14T04:55:06.881Z,62.17
2023-02-14T04:57:34.776Z,96.47
2023-02-14T05:00:03.062Z,52.03
2023-02-14T05:02:31.934Z,38.83
2023-02-14T05:05:00.015Z,35.70
2023-02-14T05:07:27.784Z,45.60
2023-02-14T05:09:55.797Z,34.57
2023-02-14T05:12:23.714Z,43.53
2023-02-14T05:14:51.780Z,41.50
2023-02-14T05:17:19.420Z,51.90
2023-02-14T05:19:47.512Z,34.07
2023-02-14T05:22:18.124Z,52.13
2023-02-14T05:24:46.601Z,57.50
2023-02-14T05:27:14.357Z,36.63
2023-02-14T05:29:42.536Z,37.83
2023-02-14T05:32:10.476Z,56.17
2023-02-14T05:34:38.630Z,89.20
2023-02-14T05:37:06.341Z,82.97
2023-02-14T05:39:34.454Z,53.37
2023-02-14T05:42:03.361Z,71.37
2023-02-14T05:44:31.594Z,113.53
2023-02-14T05:47:02.374Z,77.37
2023-02-14T05:49:30.396Z,76.37
2023-02-14T05:51:58.156Z,54.30
2023-02-14T05:54:26.748Z,47.87
2023-02-14T05:56:55.230Z,43.20
2023-02-14T05:59:23.309Z,39.47
2023-02-14T06:01:51.282Z,39.73
2023-02-14T06:04:19.761Z,37.13
2023-02-14T06:06:47.751Z,34.60
2023-02-14T06:09:15.766Z,43.20
2023-02-14T06:11:43.574Z,37.17
2023-02-14T06:14:11.800Z,32.97
2023-02-14T06:16:39.994Z,37.30
2023-02-14T06:19:08.163Z,36.23
2023-02-14T06:21:36.186Z,40.03
2023-02-14T06:24:04.500Z,54.63
2023-02-14T06:26:33.558Z,52.10
2023-02-14T06:29:01.683Z,61.17
2023-02-14T06:31:29.726Z,61.27
2023-02-14T06:33:57.859Z,68.13
2023-02-14T06:36:26.394Z,60.33
2023-02-14T06:38:54.578Z,79.13
2023-02-14T06:41:22.382Z,68.13
2023-02-14T06:43:50.510Z,59.93
2023-02-14T06:46:18.725Z,58.70
2023-02-14T06:48:46.918Z,61.37
2023-02-14T06:51:14.902Z,56.47
2023-02-14T06:53:43.093Z,57.47
2023-02-14T06:56:11.078Z,60.93
2023-02-14T06:58:39.181Z,57.07
2023-02-14T07:01:07.139Z,56.10
2023-02-14T07:03:35.039Z,115.40
2023-02-14T07:06:02.685Z,110.50
2023-02-14T07:08:30.664Z,86.70
2023-02-14T07:10:59.238Z,46.23
2023-02-14T07:13:27.182Z,45.63
2023-02-14T07:15:54.576Z,41.50
2023-02-14T07:18:22.540Z,53.73
2023-02-14T07:20:50.605Z,48.33
2023-02-14T07:23:18.506Z,52.57
2023-02-14T07:25:46.128Z,56.63
2023-02-14T07:28:14.076Z,76.47
2023-02-14T07:30:41.649Z,43.47
2023-02-14T07:33:09.635Z,54.70
2023-02-14T07:35:37.267Z,47.97
2023-02-14T07:38:05.098Z,54.13
2023-02-14T07:40:32.797Z,37.53
2023-02-14T07:43:01.041Z,32.47
2023-02-14T07:45:28.703Z,36.83
2023-02-14T07:47:59.126Z,32.67
2023-02-14T07:50:26.770Z,41.30
2023-02-14T07:52:54.730Z,36.63
2023-02-14T07:55:25.139Z,37.00
2023-02-14T07:57:53.023Z,27.73
2023-02-14T08:00:21.094Z,34.33
2023-02-14T08:02:49.567Z,24.23
2023-02-14T08:05:17.456Z,29.13
2023-02-14T08:07:48.295Z,38.27
2023-02-14T08:10:15.973Z,26.57
2023-02-14T08:12:59.201Z,27.30
2023-02-14T08:15:51.094Z,45.57
2023-02-14T08:18:20.431Z,64.53
2023-02-14T08:20:51.485Z,44.57
2023-02-14T08:23:20.616Z,55.40
2023-02-14T08:25:52.629Z,37.00
2023-02-14T08:28:23.499Z,32.57
2023-02-14T08:30:51.226Z,33.83
2023-02-14T08:33:19.905Z,30.67
2023-02-14T08:35:47.823Z,33.43
2023-02-14T08:38:15.770Z,28.00
2023-02-14T08:40:43.645Z,34.07
2023-02-14T08:43:11.940Z,33.40
2023-02-14T08:45:40.106Z,36.43
2023-02-14T08:48:12.775Z,31.63
2023-02-14T08:50:40.716Z,29.57
2023-02-14T08:53:10.432Z,36.03
2023-02-14T08:55:38.581Z,33.13
2023-02-14T08:58:07.047Z,35.20
2023-02-14T09:00:34.541Z,30.20
2023-02-14T09:03:02.674Z,32.67
2023-02-14T09:05:30.589Z,26.90
2023-02-14T09:07:58.669Z,23.37
2023-02-14T09:10:26.732Z,21.37
2023-02-14T09:12:54.845Z,20.27
2023-02-14T09:15:22.559Z,20.77
2023-02-14T09:17:51.199Z,26.43
2023-02-14T09:20:18.629Z,25.93
2023-02-14T09:22:48.730Z,39.00
2023-02-14T09:25:16.704Z,40.60
2023-02-14T09:27:44.193Z,33.03
2023-02-14T09:30:12.437Z,35.83
2023-02-14T09:32:40.052Z,36.73
2023-02-14T09:35:07.762Z,30.43
2023-02-14T09:37:54.134Z,25.20
2023-02-14T09:40:22.054Z,24.17
2023-02-14T09:42:59.073Z,28.10
2023-02-14T09:45:30.312Z,23.80
2023-02-14T09:48:00.523Z,41.00
2023-02-14T09:50:49.484Z,43.40
2023-02-14T09:53:30.264Z,39.97
2023-02-14T09:56:02.670Z,30.10
2023-02-14T09:59:07.087Z,31.20
2023-02-14T10:01:34.624Z,50.57
2023-02-14T10:04:42.541Z,25.57
2023-02-14T10:07:32.207Z,69.70
2023-02-14T10:10:09.091Z,35.93
2023-02-14T10:12:56.987Z,28.60
2023-02-14T10:15:28.321Z,38.17
2023-02-14T10:17:57.214Z,37.77
2023-02-14T10:20:35.686Z,36.97
2023-02-14T10:23:37.954Z,34.90
2023-02-14T10:26:13.035Z,33.90
2023-02-14T10:28:52.253Z,35.00
2023-02-14T10:31:45.131Z,27.43
2023-02-14T10:34:17.427Z,22.57
2023-02-14T10:36:48.111Z,22.67
2023-02-14T10:39:43.563Z,26.40
2023-02-14T10:42:32.250Z,18.20
2023-02-14T10:45:02.494Z,28.40
2023-02-14T10:47:35.964Z,24.63
2023-02-14T10:50:33.583Z,34.83
2023-02-14T10:53:31.503Z,25.27
2023-02-14T10:56:07.802Z,25.87
2023-02-14T10:58:39.980Z,27.77
2023-02-14T11:01:13.635Z,33.13
2023-02-14T11:04:06.688Z,22.33
2023-02-14T11:06:34.534Z,20.17
2023-02-14T11:09:03.240Z,16.87
2023-02-14T11:11:40.922Z,23.07
2023-02-14T11:14:32.639Z,22.37
2023-02-14T11:17:00.851Z,29.57
2023-02-14T11:19:31.489Z,38.60
2023-02-14T11:22:00.176Z,35.93
2023-02-14T11:24:27.920Z,51.73
2023-02-14T11:27:18.684Z,43.20
2023-02-14T11:29:53.155Z,43.63
2023-02-14T11:32:25.215Z,26.73
2023-02-14T11:35:17.866Z,30.50
2023-02-14T11:37:58.460Z,19.17
2023-02-14T11:40:38.978Z,21.20
2023-02-14T11:43:14.776Z,33.80
2023-02-14T11:45:46.296Z,33.90
2023-02-14T11:48:36.561Z,22.17
2023-02-14T11:51:10.509Z,22.73
2023-02-14T11:53:48.697Z,34.10
2023-02-14T11:56:19.337Z,35.73
2023-02-14T11:59:03.913Z,16.20
2023-02-14T12:01:40.614Z,21.57
2023-02-14T12:04:19.757Z,23.43
2023-02-14T12:06:47.972Z,25.03
2023-02-14T12:09:24.501Z,22.63
2023-02-14T12:12:16.440Z,26.63
2023-02-14T12:14:44.496Z,29.13
2023-02-14T12:17:25.593Z,27.73
2023-02-14T12:20:04.672Z,29.30
2023-02-14T12:23:01.429Z,24.67
2023-02-14T12:25:45.915Z,43.30
2023-02-14T12:28:20.305Z,33.23
2023-02-14T12:30:49.844Z,26.07
2023-02-14T12:33:25.276Z,35.97
2023-02-14T12:35:55.719Z,32.27
2023-02-14T12:38:44.559Z,33.67
2023-02-14T12:41:30.783Z,27.20
2023-02-14T12:44:05.258Z,23.50
2023-02-14T12:47:02.756Z,26.10
2023-02-14T12:50:11.160Z,23.47
2023-02-14T12:52:48.760Z,22.00
2023-02-14T12:55:49.362Z,25.27
2023-02-14T12:58:29.052Z,46.33
2023-02-14T13:01:04.334Z,27.37
2023-02-14T13:03:39.782Z,24.10
2023-02-14T13:06:33.888Z,26.77
2023-02-14T13:09:27.670Z,24.67
2023-02-14T13:12:23.136Z,18.33
2023-02-14T13:15:31.870Z,23.70
2023-02-14T13:18:24.538Z,30.33
2023-02-14T13:21:00.445Z,55.03
2023-02-14T13:23:46.519Z,39.00
2023-02-14T13:26:27.462Z,25.10
2023-02-14T13:29:11.174Z,23.43
2023-02-14T13:31:47.295Z,37.93
2023-02-14T13:34:39.642Z,34.60
2023-02-14T13:37:11.645Z,32.50
2023-02-14T13:39:57.956Z,42.97
2023-02-14T13:42:48.230Z,62.10
2023-02-14T13:45:40.922Z,25.77
2023-02-14T13:48:22.095Z,12.03
2023-02-14T13:51:12.766Z,19.63
2023-02-14T13:53:50.020Z,28.43
2023-02-14T13:56:19.496Z,53.33
2023-02-14T13:58:55.403Z,37.13
2023-02-14T14:01:49.277Z,28.33
2023-02-14T14:04:31.530Z,53.13
2023-02-14T14:07:04.216Z,29.65
2023-02-14T14:09:47.949Z,30.45
2023-02-14T14:12:30.707Z,33.22
2023-02-14T14:15:19.075Z,21.75
2023-02-14T14:17:51.030Z,14.70
2023-02-14T14:20:21.917Z,12.45
2023-02-14T14:23:02.231Z,8.90
2023-02-14T14:25:50.552Z,17.70
2023-02-14T14:28:23.026Z,17.17
2023-02-14T14:30:54.638Z,17.98
2023-02-14T14:33:36.014Z,16.75
2023-02-14T14:36:08.345Z,13.40
2023-02-14T14:38:52.875Z,18.73
2023-02-14T14:41:35.321Z,15.93
2023-02-14T14:44:07.024Z,28.50
2023-02-14T14:46:34.583Z,23.50
2023-02-14T14:49:05.918Z,25.50
2023-02-14T14:51:38.982Z,22.80
2023-02-14T14:54:20.458Z,15.50
2023-02-14T14:56:52.661Z,14.60
2023-02-14T14:59:31.345Z,11.37
2023-02-14T15:01:59.066Z,17.23
2023-02-14T15:04:32.990Z,15.13
2023-02-14T15:07:21.180Z,15.30
2023-02-14T15:09:48.791Z,24.20
2023-02-14T15:12:40.887Z,17.70
2023-02-14T15:15:12.716Z,15.87
2023-02-14T15:17:42.489Z,16.63
2023-02-14T15:20:30.675Z,24.13
2023-02-14T15:22:58.472Z,18.60
2023-02-14T15:25:30.853Z,20.70
2023-02-14T15:27:58.512Z,18.70
2023-02-14T15:30:34.458Z,19.57
2023-02-14T15:33:05.909Z,20.70
2023-02-14T15:35:39.231Z,18.10
2023-02-14T15:38:12.077Z,23.00
2023-02-14T15:40:40.565Z,17.57
2023-02-14T15:43:31.191Z,15.70
2023-02-14T15:46:39.399Z,21.67
2023-02-14T15:49:15.818Z,14.03
2023-02-14T15:51:44.464Z,13.57
2023-02-14T15:54:35.540Z,14.70
2023-02-14T15:57:05.536Z,14.67
2023-02-14T15:59:41.602Z,20.00
2023-02-14T16:02:38.203Z,21.47
2023-02-14T16:05:24.336Z,16.80
2023-02-14T16:08:03.814Z,18.33
2023-02-14T16:10:38.615Z,14.93
2023-02-14T16:13:20.686Z,20.13
2023-02-14T16:16:07.799Z,13.87
2023-02-14T16:18:41.911Z,21.00
2023-02-14T16:21:25.498Z,18.37
2023-02-14T16:24:10.937Z,18.23
2023-02-14T16:26:41.071Z,18.20
2023-02-14T16:29:11.278Z,16.80
2023-02-14T16:34:39.799Z,15.80
2023-02-14T16:37:17.165Z,18.40
2023-02-14T16:39:45.069Z,20.10
2023-02-14T16:42:17.410Z,16.73
2023-02-14T16:44:46.579Z,16.33
2023-02-14T16:47:15.834Z,21.80
2023-02-14T16:49:43.846Z,18.73
2023-02-14T16:52:16.198Z,18.13
2023-02-14T16:54:44.424Z,16.80
2023-02-14T16:57:32.835Z,17.33
2023-02-14T17:00:00.866Z,15.03
2023-02-14T17:02:30.589Z,16.63
2023-02-14T17:04:58.563Z,21.27
2023-02-14T17:07:28.132Z,14.00
2023-02-14T17:10:03.498Z,17.53
2023-02-14T17:12:36.042Z,16.90
2023-02-14T17:15:11.028Z,17.37
2023-02-14T17:17:38.563Z,17.83
2023-02-14T17:20:08.493Z,13.00
2023-02-14T17:22:37.616Z,20.63
2023-02-14T17:25:06.648Z,14.53
2023-02-14T17:27:34.377Z,18.47
2023-02-14T17:30:02.376Z,16.13
2023-02-14T17:32:30.158Z,16.33
2023-02-14T17:34:58.140Z,15.17
2023-02-14T17:37:25.904Z,15.13
2023-02-14T17:39:55.951Z,20.77
2023-02-14T17:42:24.250Z,15.10
2023-02-14T17:44:52.097Z,15.60
2023-02-14T17:47:21.045Z,14.23
2023-02-14T17:49:50.660Z,16.67
2023-02-14T17:52:18.987Z,12.60
2023-02-14T17:54:46.984Z,14.70
2023-02-14T17:57:14.906Z,12.70
2023-02-14T17:59:43.162Z,14.40
2023-02-14T18:02:11.211Z,11.90
2023-02-14T18:04:39.217Z,13.70
2023-02-14T18:07:06.940Z,14.20
2023-02-14T18:09:35.122Z,13.30
2023-02-14T18:12:03.187Z,12.33
2023-02-14T18:14:32.235Z,14.73
2023-02-14T18:17:00.804Z,13.20
2023-02-14T18:19:29.243Z,15.97
2023-02-14T18:21:56.728Z,12.10
2023-02-14T18:24:24.777Z,14.73
2023-02-14T18:26:52.565Z,21.40
2023-02-14T18:29:21.260Z,17.93
2023-02-14T18:31:50.009Z,14.63
2023-02-14T18:34:18.500Z,13.33
2023-02-14T18:36:46.518Z,16.07
2023-02-14T18:39:14.444Z,18.93
2023-02-14T18:41:42.091Z,25.40
2023-02-14T18:44:10.148Z,18.83
2023-02-14T18:46:38.674Z,21.90
2023-02-14T18:49:08.648Z,26.50
2023-02-14T18:51:39.439Z,24.10
2023-02-14T18:54:08.018Z,26.30
2023-02-14T18:56:38.471Z,26.93
2023-02-14T18:59:10.038Z,30.17
2023-02-14T19:01:42.281Z,29.67
2023-02-14T19:04:12.471Z,31.90
2023-02-14T19:06:42.072Z,24.77
2023-02-14T19:09:14.299Z,25.53
2023-02-14T19:11:42.363Z,25.67
2023-02-14T19:14:11.190Z,27.87
2023-02-14T19:16:45.084Z,31.73
2023-02-14T19:19:13.775Z,27.37
2023-02-14T19:21:42.003Z,25.97
2023-02-14T19:24:10.502Z,25.87
2023-02-14T19:26:40.979Z,23.87
2023-02-14T19:29:15.314Z,21.80
2023-02-14T19:31:50.512Z,33.80
2023-02-14T19:34:30.742Z,26.67
2023-02-14T19:37:00.999Z,33.27
2023-02-14T19:39:30.764Z,25.87
2023-02-14T19:41:59.812Z,25.33
2023-02-14T19:44:29.750Z,20.97
2023-02-14T19:47:00.654Z,25.13
2023-02-14T19:49:30.677Z,26.80
2023-02-14T19:52:00.039Z,23.57
2023-02-14T19:54:30.165Z,23.40
2023-02-14T19:56:58.723Z,22.27
2023-02-14T19:59:28.243Z,26.90
2023-02-14T20:01:57.937Z,39.63
2023-02-14T20:04:29.885Z,59.17
2023-02-14T20:06:59.484Z,115.50
2023-02-14T20:09:28.521Z,118.27
2023-02-14T20:11:58.188Z,110.27
2023-02-14T20:14:49.856Z,104.27
2023-02-14T20:17:21.719Z,111.00
2023-02-14T20:19:53.523Z,75.40
2023-02-14T20:22:23.849Z,85.47
2023-02-14T20:24:56.028Z,53.67
2023-02-14T20:27:27.050Z,53.03
2023-02-14T20:29:56.827Z,61.37
2023-02-14T20:32:28.134Z,36.10
2023-02-14T20:34:59.898Z,29.57
2023-02-14T20:37:30.390Z,25.97
2023-02-14T20:40:04.893Z,28.40
2023-02-14T20:42:33.987Z,25.23
2023-02-14T20:45:02.410Z,29.23
2023-02-14T20:47:30.758Z,30.40
2023-02-14T20:49:59.583Z,38.20
2023-02-14T20:52:28.312Z,37.50
2023-02-14T20:54:57.855Z,51.73
2023-02-14T20:57:27.083Z,215.00
2023-02-14T20:59:56.634Z,136.87
2023-02-14T21:02:25.504Z,114.97
2023-02-14T21:04:54.844Z,127.27
2023-02-14T21:07:23.573Z,155.53
2023-02-14T21:09:52.501Z,219.67
2023-02-14T21:12:21.461Z,108.27
2023-02-14T21:14:50.844Z,132.83
2023-02-14T21:17:19.618Z,85.77
2023-02-14T21:19:50.283Z,177.30
2023-02-14T21:22:22.786Z,82.83
2023-02-14T21:24:55.379Z,196.00
2023-02-14T21:27:25.128Z,97.87
2023-02-14T21:29:57.836Z,229.73
2023-02-14T21:32:28.954Z,86.87
2023-02-14T21:34:57.657Z,118.33
2023-02-14T21:37:25.616Z,103.00
2023-02-14T21:39:54.057Z,109.60
2023-02-14T21:42:22.162Z,62.47
2023-02-14T21:45:08.676Z,77.73
2023-02-14T21:47:38.625Z,72.53
2023-02-14T21:50:26.584Z,91.80
2023-02-14T21:52:54.838Z,57.13
2023-02-14T21:55:24.382Z,105.53
2023-02-14T21:57:52.852Z,111.53
2023-02-14T22:00:23.141Z,137.77
2023-02-14T22:02:53.289Z,101.07
2023-02-14T22:05:23.084Z,78.30
2023-02-14T22:07:51.510Z,100.67
2023-02-14T22:10:20.028Z,102.87
2023-02-14T22:12:48.338Z,104.83
2023-02-14T22:15:17.484Z,94.90
2023-02-14T22:17:45.806Z,144.87
2023-02-14T22:20:14.350Z,112.80
2023-02-14T22:22:42.679Z,123.70
2023-02-14T22:25:11.092Z,107.77
2023-02-14T22:27:43.205Z,108.80
2023-02-14T22:30:11.544Z,103.20
2023-02-14T22:32:39.405Z,93.13
2023-02-14T22:35:08.036Z,128.93
2023-02-14T22:37:37.675Z,160.37
2023-02-14T22:40:08.602Z,124.40
2023-02-14T22:42:36.931Z,169.93
2023-02-14T22:45:05.634Z,184.23
2023-02-14T22:47:34.270Z,145.10
2023-02-14T22:50:02.805Z,160.43
2023-02-14T22:52:30.755Z,188.43
2023-02-14T22:54:58.755Z,127.03
2023-02-14T22:57:26.657Z,156.43
2023-02-14T22:59:54.961Z,160.87
2023-02-14T23:02:22.835Z,173.53
2023-02-14T23:04:51.277Z,237.67
2023-02-14T23:07:19.362Z,216.67
2023-02-14T23:09:47.537Z,228.13
2023-02-14T23:12:35.261Z,188.07
2023-02-14T23:15:22.209Z,208.47
2023-02-14T23:18:08.944Z,196.00
2023-02-14T23:20:55.647Z,239.37
2023-02-14T23:23:23.830Z,225.40
2023-02-14T23:25:52.204Z,224.90
2023-02-14T23:28:20.079Z,228.57
2023-02-14T23:30:48.226Z,142.23
2023-02-14T23:33:16.190Z,168.07
2023-02-14T23:35:44.620Z,143.10
2023-02-14T23:38:12.788Z,174.87
2023-02-14T23:40:59.175Z,159.43
2023-02-14T23:43:27.280Z,146.00
2023-02-14T23:45:56.657Z,170.87
2023-02-14T23:48:24.517Z,158.83
2023-02-14T23:50:53.082Z,162.30
2023-02-14T23:53:21.442Z,147.23
2023-02-14T23:55:49.858Z,116.77
2023-02-14T23:58:17.941Z,121.80
